createdAt,value
2022-07-27T00:01:33.440Z,35.70
2022-07-27T00:04:01.983Z,35.60
2022-07-27T00:06:30.805Z,35.60
2022-07-27T00:08:59.204Z,35.70
2022-07-27T00:11:27.612Z,35.70
2022-07-27T00:13:55.947Z,35.60
2022-07-27T00:16:24.449Z,35.70
2022-07-27T00:18:52.935Z,35.70
2022-07-27T00:21:21.328Z,35.80
2022-07-27T00:23:49.863Z,35.70
2022-07-27T00:26:18.287Z,35.70
2022-07-27T00:28:46.647Z,35.80
2022-07-27T00:31:15.499Z,35.90
2022-07-27T00:33:43.978Z,36.00
2022-07-27T00:36:12.906Z,36.00
2022-07-27T00:38:41.299Z,36.00
2022-07-27T00:41:09.861Z,36.00
2022-07-27T00:43:59.253Z,36.00
2022-07-27T00:46:29.038Z,35.90
2022-07-27T00:48:57.572Z,36.00
2022-07-27T00:51:26.511Z,35.90
2022-07-27T00:53:55.943Z,35.90
2022-07-27T00:56:25.007Z,35.90
2022-07-27T00:58:54.635Z,35.90
2022-07-27T01:01:23.175Z,35.90
2022-07-27T01:03:51.596Z,35.90
2022-07-27T01:06:26.903Z,35.90
2022-07-27T01:09:15.133Z,35.90
2022-07-27T01:11:43.842Z,35.80
2022-07-27T01:14:14.783Z,35.80
2022-07-27T01:16:43.605Z,35.90
2022-07-27T01:19:13.180Z,35.80
2022-07-27T01:21:41.855Z,35.70
2022-07-27T01:24:10.694Z,35.50
2022-07-27T01:26:40.181Z,35.30
2022-07-27T01:29:09.069Z,35.20
2022-07-27T01:31:37.692Z,35.30
2022-07-27T01:34:06.830Z,35.20
2022-07-27T01:36:35.231Z,35.10
2022-07-27T01:39:03.603Z,35.10
2022-07-27T01:41:32.003Z,35.00
2022-07-27T01:44:00.489Z,34.90
2022-07-27T01:46:28.905Z,35.00
2022-07-27T01:48:57.522Z,34.90
2022-07-27T01:51:26.025Z,34.90
2022-07-27T01:53:54.398Z,34.80
2022-07-27T01:56:22.933Z,34.90
2022-07-27T01:58:51.302Z,34.80
2022-07-27T02:01:19.796Z,34.80
2022-07-27T02:03:48.284Z,34.80
2022-07-27T02:06:16.784Z,34.70
2022-07-27T02:08:45.207Z,34.60
2022-07-27T02:11:32.102Z,34.50
2022-07-27T02:14:00.506Z,34.40
2022-07-27T02:16:28.909Z,34.30
2022-07-27T02:18:57.364Z,34.30
2022-07-27T02:21:25.808Z,34.20
2022-07-27T02:23:54.181Z,34.20
2022-07-27T02:26:22.550Z,34.10
2022-07-27T02:28:50.959Z,34.00
2022-07-27T02:31:19.326Z,33.90
2022-07-27T02:33:47.698Z,34.00
2022-07-27T02:36:16.200Z,33.80
2022-07-27T02:38:44.552Z,33.80
2022-07-27T02:41:13.811Z,33.60
2022-07-27T02:43:42.264Z,33.50
2022-07-27T02:46:10.718Z,33.40
2022-07-27T02:48:40.190Z,33.30
2022-07-27T02:51:08.634Z,33.20
2022-07-27T02:53:37.001Z,33.00
2022-07-27T02:56:05.540Z,33.10
2022-07-27T02:58:33.911Z,33.00
2022-07-27T03:01:02.367Z,32.90
2022-07-27T03:03:33.875Z,32.70
2022-07-27T03:06:08.862Z,32.70
2022-07-27T03:08:37.771Z,32.70
2022-07-27T03:11:06.433Z,32.50
2022-07-27T03:13:34.812Z,32.40
2022-07-27T03:16:03.262Z,32.10
2022-07-27T03:18:31.693Z,32.10
2022-07-27T03:21:00.107Z,31.90
2022-07-27T03:23:28.670Z,31.60
2022-07-27T03:25:57.249Z,31.40
2022-07-27T03:28:25.909Z,31.40
2022-07-27T03:30:54.317Z,31.20
2022-07-27T03:33:22.944Z,31.00
2022-07-27T03:35:51.837Z,30.80
2022-07-27T03:38:20.311Z,30.80
2022-07-27T03:40:48.675Z,30.80
2022-07-27T03:43:17.069Z,30.60
2022-07-27T03:45:45.525Z,30.50
2022-07-27T03:48:13.975Z,30.50
2022-07-27T03:50:42.351Z,30.40
2022-07-27T03:53:10.938Z,30.30
2022-07-27T03:55:39.281Z,30.30
2022-07-27T03:58:07.658Z,30.10
2022-07-27T04:00:36.145Z,30.00
2022-07-27T04:03:04.624Z,29.70
2022-07-27T04:05:33.295Z,29.60
2022-07-27T04:08:01.665Z,29.50
2022-07-27T04:10:31.515Z,29.40
2022-07-27T04:13:00.424Z,29.40
2022-07-27T04:15:30.118Z,29.20
2022-07-27T04:17:58.651Z,29.10
2022-07-27T04:20:27.579Z,29.00
2022-07-27T04:22:56.335Z,28.90
2022-07-27T04:25:24.803Z,28.80
2022-07-27T04:27:55.274Z,28.80
2022-07-27T04:30:24.173Z,28.70
2022-07-27T04:32:53.051Z,28.50
2022-07-27T04:35:26.313Z,28.40
2022-07-27T04:37:57.824Z,28.40
2022-07-27T04:40:30.414Z,28.30
2022-07-27T04:42:58.797Z,28.20
2022-07-27T04:45:27.157Z,28.20
2022-07-27T04:47:55.634Z,28.10
2022-07-27T04:50:24.461Z,28.00
2022-07-27T04:52:52.905Z,27.90
2022-07-27T04:55:21.303Z,27.80
2022-07-27T04:57:49.679Z,27.90
2022-07-27T05:00:18.682Z,27.80
2022-07-27T05:02:47.024Z,27.80
2022-07-27T05:05:15.548Z,27.80
2022-07-27T05:07:43.915Z,27.80
2022-07-27T05:10:16.519Z,27.70
2022-07-27T05:12:48.410Z,27.70
2022-07-27T05:15:17.592Z,27.60
2022-07-27T05:17:46.059Z,27.60
2022-07-27T05:20:15.356Z,27.60
2022-07-27T05:22:43.815Z,27.50
2022-07-27T05:25:12.270Z,27.50
2022-07-27T05:27:50.923Z,27.40
2022-07-27T05:30:25.172Z,27.30
2022-07-27T05:32:54.001Z,27.30
2022-07-27T05:35:23.444Z,27.20
2022-07-27T05:37:51.870Z,27.00
2022-07-27T05:40:20.404Z,26.90
2022-07-27T05:42:49.031Z,26.80
2022-07-27T05:45:17.473Z,26.80
2022-07-27T05:47:45.966Z,26.70
2022-07-27T05:50:14.795Z,26.70
2022-07-27T05:52:44.231Z,26.60
2022-07-27T05:55:13.275Z,26.50
2022-07-27T05:57:42.236Z,26.50
2022-07-27T06:00:12.365Z,26.40
2022-07-27T06:02:41.501Z,26.20
2022-07-27T06:05:15.229Z,26.10
2022-07-27T06:08:02.901Z,26.00
2022-07-27T06:10:34.240Z,25.80
2022-07-27T06:13:07.787Z,25.60
2022-07-27T06:15:37.391Z,25.60
2022-07-27T06:18:07.623Z,25.60
2022-07-27T06:20:36.472Z,25.60
2022-07-27T06:23:08.089Z,25.60
2022-07-27T06:25:37.226Z,25.60
2022-07-27T06:28:06.891Z,25.30
2022-07-27T06:30:35.369Z,25.30
2022-07-27T06:33:07.478Z,25.20
2022-07-27T06:35:37.869Z,25.00
2022-07-27T06:38:08.011Z,24.90
2022-07-27T06:40:36.936Z,24.80
2022-07-27T06:43:05.506Z,24.70
2022-07-27T06:45:33.957Z,24.50
2022-07-27T06:48:02.484Z,24.40
2022-07-27T06:50:30.887Z,24.40
2022-07-27T06:52:59.271Z,24.40
2022-07-27T06:55:27.667Z,24.50
2022-07-27T06:57:56.244Z,24.30
2022-07-27T07:00:24.930Z,24.20
2022-07-27T07:03:01.132Z,24.00
2022-07-27T07:05:30.206Z,23.90
2022-07-27T07:07:59.329Z,23.90
2022-07-27T07:10:28.528Z,23.80
2022-07-27T07:13:04.091Z,23.70
2022-07-27T07:15:32.540Z,23.60
2022-07-27T07:18:01.087Z,23.40
2022-07-27T07:20:29.544Z,23.40
2022-07-27T07:22:59.076Z,23.40
2022-07-27T07:25:28.831Z,23.40
2022-07-27T07:27:57.816Z,23.40
2022-07-27T07:30:26.263Z,23.20
2022-07-27T07:32:54.706Z,23.10
2022-07-27T07:35:23.368Z,23.10
2022-07-27T07:37:51.881Z,23.10
2022-07-27T07:43:09.999Z,23.00
2022-07-27T07:45:51.528Z,23.00
2022-07-27T07:48:24.775Z,23.10
2022-07-27T07:50:54.287Z,23.10
2022-07-27T07:53:24.070Z,23.10
2022-07-27T07:55:54.240Z,23.00
2022-07-27T07:58:22.620Z,23.00
2022-07-27T08:00:51.371Z,23.10
2022-07-27T08:03:20.406Z,23.00
2022-07-27T08:05:48.985Z,23.10
2022-07-27T08:08:18.602Z,23.10
2022-07-27T08:10:47.934Z,23.10
2022-07-27T08:13:21.913Z,23.10
2022-07-27T08:15:52.194Z,23.00
2022-07-27T08:18:21.137Z,22.80
2022-07-27T08:20:50.169Z,22.80
2022-07-27T08:23:18.604Z,22.80
2022-07-27T08:25:47.477Z,22.80
2022-07-27T08:28:16.019Z,22.70
2022-07-27T08:30:44.567Z,22.50
2022-07-27T08:33:13.684Z,22.40
2022-07-27T08:35:42.061Z,22.30
2022-07-27T08:38:10.849Z,22.30
2022-07-27T08:40:42.754Z,22.30
2022-07-27T08:43:21.934Z,22.10
2022-07-27T08:46:00.806Z,22.10
2022-07-27T08:48:32.473Z,22.10
2022-07-27T08:51:01.170Z,22.00
2022-07-27T08:53:41.952Z,22.10
2022-07-27T08:56:22.634Z,22.20
2022-07-27T08:58:51.448Z,22.30
2022-07-27T09:01:20.032Z,22.20
2022-07-27T09:03:49.037Z,22.00
2022-07-27T09:06:43.532Z,21.80
2022-07-27T09:09:13.774Z,21.70
2022-07-27T09:11:42.895Z,21.60
2022-07-27T09:14:13.892Z,21.80
2022-07-27T09:17:44.184Z,21.70
2022-07-27T09:19:30.923Z,21.80
2022-07-27T09:22:05.216Z,21.80
2022-07-27T09:24:47.017Z,21.90
2022-07-27T09:27:16.274Z,21.90
2022-07-27T09:29:44.784Z,21.90
2022-07-27T09:32:17.615Z,21.90
2022-07-27T09:34:46.770Z,21.80
2022-07-27T09:37:28.327Z,21.70
2022-07-27T09:40:12.414Z,21.70
2022-07-27T09:45:34.755Z,21.30
2022-07-27T09:48:21.632Z,21.40
2022-07-27T09:51:55.650Z,21.30
2022-07-27T09:54:11.172Z,21.30
2022-07-27T09:56:39.903Z,21.20
2022-07-27T09:59:08.310Z,21.20
2022-07-27T10:01:47.753Z,21.20
2022-07-27T10:04:18.957Z,21.10
2022-07-27T10:07:02.274Z,21.10
2022-07-27T10:09:32.131Z,21.10
2022-07-27T10:12:01.210Z,21.00
2022-07-27T10:14:29.636Z,21.10
2022-07-27T10:16:58.737Z,21.00
2022-07-27T10:20:04.789Z,20.80
2022-07-27T10:22:56.066Z,20.80
2022-07-27T10:25:26.630Z,20.90
2022-07-27T10:28:18.405Z,20.80
2022-07-27T10:30:52.212Z,20.80
2022-07-27T10:33:51.841Z,20.70
2022-07-27T10:36:32.315Z,20.60
2022-07-27T10:39:03.456Z,20.50
2022-07-27T10:41:42.646Z,20.50
2022-07-27T10:44:19.527Z,20.40
2022-07-27T10:47:08.084Z,20.30
2022-07-27T10:49:40.499Z,20.10
2022-07-27T10:52:43.269Z,20.10
2022-07-27T10:55:45.330Z,20.00
2022-07-27T10:58:16.477Z,20.10
2022-07-27T11:00:55.061Z,20.10
2022-07-27T11:03:24.865Z,20.00
2022-07-27T11:06:33.207Z,19.90
2022-07-27T11:10:02.277Z,19.90
2022-07-27T11:11:55.544Z,19.90
2022-07-27T11:14:31.225Z,20.00
2022-07-27T11:17:24.472Z,20.00
2022-07-27T11:19:57.646Z,20.00
2022-07-27T11:25:24.199Z,20.00
2022-07-27T11:27:53.481Z,20.10
2022-07-27T11:30:29.613Z,20.00
2022-07-27T11:32:58.056Z,20.00
2022-07-27T11:35:26.476Z,19.90
2022-07-27T11:38:06.293Z,19.90
2022-07-27T11:43:52.718Z,19.80
2022-07-27T11:46:29.520Z,19.70
2022-07-27T11:49:10.215Z,19.70
2022-07-27T11:51:41.692Z,19.70
2022-07-27T11:54:13.306Z,19.70
2022-07-27T11:56:45.968Z,19.70
2022-07-27T11:59:17.177Z,19.70
2022-07-27T12:01:48.920Z,19.70
2022-07-27T12:04:31.821Z,19.60
2022-07-27T12:07:17.578Z,19.60
2022-07-27T12:09:48.989Z,19.60
2022-07-27T12:12:22.639Z,19.40
2022-07-27T12:14:52.220Z,19.40
2022-07-27T12:17:37.639Z,19.50
2022-07-27T12:20:11.628Z,19.50
2022-07-27T12:22:47.223Z,19.50
2022-07-27T12:25:18.576Z,19.50
2022-07-27T12:28:00.114Z,19.40
2022-07-27T12:30:37.630Z,19.30
2022-07-27T12:33:25.819Z,19.30
2022-07-27T12:35:54.468Z,19.40
2022-07-27T12:38:23.214Z,19.40
2022-07-27T12:41:00.466Z,19.40
2022-07-27T12:43:29.388Z,19.30
2022-07-27T12:45:57.860Z,19.40
2022-07-27T12:48:28.764Z,19.40
2022-07-27T12:51:06.113Z,19.40
2022-07-27T12:53:35.973Z,19.50
2022-07-27T12:56:10.760Z,19.50
2022-07-27T12:58:39.223Z,19.50
2022-07-27T13:01:07.926Z,19.30
2022-07-27T13:03:36.978Z,19.30
2022-07-27T13:06:12.339Z,19.40
2022-07-27T13:08:41.771Z,19.20
2022-07-27T13:11:10.454Z,19.30
2022-07-27T13:13:42.224Z,19.10
2022-07-27T13:16:10.755Z,19.00
2022-07-27T13:18:39.208Z,19.10
2022-07-27T13:21:07.617Z,19.00
2022-07-27T13:23:35.980Z,19.20
2022-07-27T13:26:04.611Z,19.10
2022-07-27T13:28:33.026Z,19.10
2022-07-27T13:31:03.923Z,19.30
2022-07-27T13:33:32.385Z,19.40
2022-07-27T13:36:01.201Z,19.40
2022-07-27T13:38:30.323Z,19.50
2022-07-27T13:40:58.755Z,19.50
2022-07-27T13:43:27.145Z,19.60
2022-07-27T13:45:55.549Z,19.70
2022-07-27T13:48:24.107Z,19.70
2022-07-27T13:50:52.572Z,19.80
2022-07-27T13:53:20.954Z,19.90
2022-07-27T13:55:49.336Z,19.80
2022-07-27T13:58:17.702Z,19.80
2022-07-27T14:00:46.294Z,20.00
2022-07-27T14:03:14.722Z,20.10
2022-07-27T14:05:45.484Z,20.30
2022-07-27T14:08:19.612Z,20.30
2022-07-27T14:10:48.321Z,20.40
2022-07-27T14:13:18.090Z,20.50
2022-07-27T14:15:53.469Z,20.50
2022-07-27T14:18:30.891Z,20.60
2022-07-27T14:21:02.320Z,20.80
2022-07-27T14:23:31.567Z,20.70
2022-07-27T14:26:02.508Z,20.70
2022-07-27T14:28:32.221Z,20.80
2022-07-27T14:31:02.619Z,20.70
2022-07-27T14:33:36.581Z,20.70
2022-07-27T14:36:07.716Z,20.80
2022-07-27T14:38:37.745Z,20.60
2022-07-27T14:41:06.465Z,20.60
2022-07-27T14:43:35.125Z,20.60
2022-07-27T14:46:03.653Z,20.60
2022-07-27T14:49:03.336Z,20.50
2022-07-27T14:51:20.499Z,20.40
2022-07-27T14:53:49.015Z,20.70
2022-07-27T14:56:17.523Z,21.00
2022-07-27T14:58:45.966Z,20.90
2022-07-27T15:01:17.011Z,20.80
2022-07-27T15:03:45.846Z,21.00
2022-07-27T15:06:14.323Z,20.90
2022-07-27T15:08:42.733Z,21.20
2022-07-27T15:11:11.766Z,21.40
2022-07-27T15:13:40.214Z,21.60
2022-07-27T15:16:08.869Z,21.90
2022-07-27T15:18:38.745Z,22.50
2022-07-27T15:21:13.208Z,23.10
2022-07-27T15:23:44.495Z,23.50
2022-07-27T15:26:13.953Z,23.80
2022-07-27T15:28:43.191Z,24.30
2022-07-27T15:31:13.398Z,24.50
2022-07-27T15:33:42.163Z,25.70
2022-07-27T15:36:10.907Z,26.70
2022-07-27T15:38:59.287Z,27.40
2022-07-27T15:41:27.728Z,29.20
2022-07-27T15:43:57.482Z,30.20
2022-07-27T15:46:27.305Z,29.60
2022-07-27T15:48:56.972Z,30.90
2022-07-27T15:51:25.990Z,32.40
2022-07-27T15:53:54.666Z,32.10
2022-07-27T15:56:23.081Z,31.90
2022-07-27T15:58:51.569Z,32.70
2022-07-27T16:01:20.970Z,33.60
2022-07-27T16:03:51.222Z,34.30
2022-07-27T16:06:20.244Z,33.90
2022-07-27T16:08:49.049Z,33.70
2022-07-27T16:11:18.496Z,34.50
2022-07-27T16:13:47.745Z,36.20
2022-07-27T16:16:31.452Z,35.60
2022-07-27T16:19:12.702Z,34.60
2022-07-27T16:21:55.053Z,35.00
2022-07-27T16:24:26.357Z,35.60
2022-07-27T16:26:55.200Z,36.80
2022-07-27T16:29:24.414Z,36.40
2022-07-27T16:31:58.667Z,36.40
2022-07-27T16:34:32.224Z,37.60
2022-07-27T16:37:01.243Z,39.10
2022-07-27T16:39:29.735Z,39.30
2022-07-27T16:41:59.121Z,39.80
2022-07-27T16:44:27.584Z,38.60
2022-07-27T16:46:56.046Z,40.60
2022-07-27T16:49:33.847Z,40.70
2022-07-27T16:52:06.654Z,42.40
2022-07-27T16:54:39.378Z,41.10
2022-07-27T16:57:10.037Z,38.80
2022-07-27T16:59:39.984Z,41.10
2022-07-27T17:02:08.495Z,40.90
2022-07-27T17:04:37.216Z,42.50
2022-07-27T17:07:05.678Z,41.80
2022-07-27T17:09:41.004Z,40.20
2022-07-27T17:12:09.919Z,41.50
2022-07-27T17:14:38.264Z,41.10
2022-07-27T17:17:06.696Z,42.70
2022-07-27T17:19:35.051Z,42.60
2022-07-27T17:22:03.801Z,41.80
2022-07-27T17:24:35.036Z,39.80
2022-07-27T17:27:06.366Z,39.90
2022-07-27T17:29:37.426Z,40.50
2022-07-27T17:32:05.940Z,40.70
2022-07-27T17:34:34.311Z,41.10
2022-07-27T17:37:02.930Z,39.90
2022-07-27T17:39:32.468Z,39.50
2022-07-27T17:42:00.901Z,40.90
2022-07-27T17:44:29.754Z,39.90
2022-07-27T17:46:58.225Z,40.10
2022-07-27T17:49:26.762Z,39.60
2022-07-27T17:51:55.264Z,40.60
2022-07-27T17:54:25.587Z,41.40
2022-07-27T17:56:54.059Z,40.30
2022-07-27T17:59:38.545Z,40.20
2022-07-27T18:02:07.769Z,40.20
2022-07-27T18:04:39.434Z,38.80
2022-07-27T18:07:08.375Z,37.40
2022-07-27T18:09:36.794Z,37.40
2022-07-27T18:12:05.679Z,37.40
2022-07-27T18:14:34.153Z,35.60
2022-07-27T18:17:06.730Z,31.60
2022-07-27T18:19:35.075Z,32.00
2022-07-27T18:22:03.464Z,32.20
2022-07-27T18:24:36.273Z,32.60
2022-07-27T18:27:04.745Z,33.60
2022-07-27T18:29:33.108Z,34.80
2022-07-27T18:32:01.491Z,35.40
2022-07-27T18:34:30.180Z,36.70
2022-07-27T18:36:58.521Z,37.20
2022-07-27T18:39:33.593Z,37.80
2022-07-27T18:42:04.460Z,36.60
2022-07-27T18:44:38.700Z,37.90
2022-07-27T18:47:07.801Z,38.60
2022-07-27T18:49:36.560Z,37.70
2022-07-27T18:52:05.723Z,39.80
2022-07-27T18:54:34.434Z,40.60
2022-07-27T18:57:02.906Z,40.30
2022-07-27T18:59:31.387Z,42.30
2022-07-27T19:01:59.813Z,42.90
2022-07-27T19:04:28.248Z,42.20
2022-07-27T19:06:56.821Z,40.50
2022-07-27T19:09:25.299Z,39.80
2022-07-27T19:11:53.829Z,40.40
2022-07-27T19:14:23.855Z,40.60
2022-07-27T19:16:53.134Z,41.20
2022-07-27T19:19:23.516Z,42.40
2022-07-27T19:21:52.159Z,42.90
2022-07-27T19:24:20.681Z,43.00
2022-07-27T19:26:49.151Z,42.20
2022-07-27T19:29:22.184Z,41.50
2022-07-27T19:31:50.723Z,41.00
2022-07-27T19:34:19.849Z,40.10
2022-07-27T19:36:48.458Z,40.70
2022-07-27T19:39:17.312Z,40.20
2022-07-27T19:41:45.853Z,37.80
2022-07-27T19:44:15.837Z,38.40
2022-07-27T19:46:47.553Z,38.00
2022-07-27T19:49:17.278Z,37.70
2022-07-27T19:51:46.148Z,37.80
2022-07-27T19:54:14.568Z,36.40
2022-07-27T19:56:43.024Z,36.60
2022-07-27T19:59:11.668Z,35.80
2022-07-27T20:01:40.452Z,36.50
2022-07-27T20:04:10.275Z,36.40
2022-07-27T20:06:38.744Z,36.20
2022-07-27T20:09:07.781Z,35.60
2022-07-27T20:11:36.236Z,35.50
2022-07-27T20:14:05.139Z,35.10
2022-07-27T20:16:35.015Z,34.30
2022-07-27T20:19:04.151Z,32.70
2022-07-27T20:21:37.666Z,32.90
2022-07-27T20:24:06.315Z,32.70
2022-07-27T20:26:34.792Z,32.90
2022-07-27T20:29:04.066Z,32.20
2022-07-27T20:31:32.751Z,32.00
2022-07-27T20:34:01.127Z,31.90
2022-07-27T20:36:29.571Z,31.50
2022-07-27T20:38:59.902Z,31.50
2022-07-27T20:41:29.789Z,31.80
2022-07-27T20:43:58.227Z,31.90
2022-07-27T20:46:26.878Z,31.80
2022-07-27T20:48:55.386Z,31.60
2022-07-27T20:51:23.846Z,31.50
2022-07-27T20:53:54.488Z,31.60
2022-07-27T20:56:23.187Z,31.80
2022-07-27T20:58:51.603Z,31.70
2022-07-27T21:01:20.113Z,31.90
2022-07-27T21:03:48.913Z,32.00
2022-07-27T21:06:17.496Z,31.80
2022-07-27T21:08:46.828Z,31.80
2022-07-27T21:11:15.602Z,31.60
2022-07-27T21:13:44.132Z,31.40
2022-07-27T21:16:12.746Z,31.50
2022-07-27T21:18:41.383Z,31.40
2022-07-27T21:21:09.886Z,31.40
2022-07-27T21:23:57.445Z,31.60
2022-07-27T21:26:25.958Z,31.70
2022-07-27T21:28:54.411Z,31.80
2022-07-27T21:31:22.805Z,31.90
2022-07-27T21:33:51.697Z,31.70
2022-07-27T21:36:20.232Z,31.70
2022-07-27T21:38:48.763Z,31.60
2022-07-27T21:41:17.244Z,31.70
2022-07-27T21:43:45.751Z,31.90
2022-07-27T21:46:14.160Z,31.90
2022-07-27T21:48:42.781Z,31.80
2022-07-27T21:51:11.187Z,31.70
2022-07-27T21:53:39.681Z,31.70
2022-07-27T21:56:08.061Z,31.80
2022-07-27T21:58:36.476Z,31.90
2022-07-27T22:01:05.008Z,32.00
2022-07-27T22:03:33.472Z,32.10
2022-07-27T22:06:01.922Z,31.90
2022-07-27T22:08:30.480Z,32.00
2022-07-27T22:10:59.191Z,32.10
2022-07-27T22:13:28.504Z,32.20
2022-07-27T22:15:56.963Z,32.20
2022-07-27T22:18:25.490Z,32.30
2022-07-27T22:20:53.899Z,32.30
2022-07-27T22:23:22.319Z,32.40
2022-07-27T22:25:50.917Z,32.50
2022-07-27T22:28:19.358Z,32.20
2022-07-27T22:31:12.418Z,32.20
2022-07-27T22:33:40.661Z,32.30
2022-07-27T22:36:13.859Z,32.50
2022-07-27T22:38:42.206Z,32.50
2022-07-27T22:41:10.598Z,32.50
2022-07-27T22:43:39.597Z,32.60
2022-07-27T22:46:08.147Z,32.60
2022-07-27T22:48:36.665Z,32.70
2022-07-27T22:51:05.603Z,32.80
2022-07-27T22:53:34.124Z,32.80
2022-07-27T22:56:02.600Z,32.40
2022-07-27T22:58:31.006Z,32.30
2022-07-27T23:00:59.984Z,32.60
2022-07-27T23:03:28.561Z,32.70
2022-07-27T23:05:57.033Z,32.70
2022-07-27T23:08:25.474Z,32.70
2022-07-27T23:10:53.880Z,32.80
2022-07-27T23:13:23.715Z,33.00
2022-07-27T23:15:52.493Z,33.00
2022-07-27T23:18:23.207Z,33.10
2022-07-27T23:20:51.596Z,33.00
2022-07-27T23:23:20.192Z,33.00
2022-07-27T23:25:51.207Z,33.00
2022-07-27T23:28:20.107Z,33.10
2022-07-27T23:30:48.699Z,33.20
2022-07-27T23:33:17.104Z,33.10
2022-07-27T23:35:46.144Z,33.30
2022-07-27T23:38:14.505Z,33.20
2022-07-27T23:40:42.986Z,33.30
2022-07-27T23:43:11.394Z,33.30
2022-07-27T23:45:40.356Z,33.20
2022-07-27T23:48:09.033Z,33.20
2022-07-27T23:50:38.092Z,33.20
2022-07-27T23:53:06.448Z,33.20
2022-07-27T23:55:37.932Z,33.00
2022-07-27T23:58:06.398Z,33.20
